Home > Products > Valid Products > TAF

000
FTUS41 KLWX 202000 AAA
TAFIAD
TAF AMD
KIAD 202053Z 2021/2124 09009KT P6SM FEW250
     FM210000 09005KT P6SM SKC
     FM210600 00000KT P6SM SKC=



000
FTUS41 KLWX 202000 AAA
TAFDCA
TAF AMD
KDCA 202053Z 2021/2118 09009KT P6SM FEW250
     FM210400 06005KT P6SM SKC=



000
FTUS41 KLWX 202000 AAA
TAFBWI
TAF AMD
KBWI 202053Z 2021/2124 09009KT P6SM FEW250
     FM210200 09005KT P6SM SKC
     FM211200 03004KT P6SM FEW250
     FM212100 13004KT P6SM FEW250=



000
FTUS41 KLWX 201700
TAFIAD
TAF
KIAD 201732Z 2018/2124 07010KT P6SM FEW250
     FM210100 06006KT P6SM FEW250
     FM210500 00000KT P6SM FEW250
     FM211800 00000KT P6SM BKN250
     FM212200 14004KT P6SM BKN250=



000
FTUS41 KLWX 201700
TAFMRB
TAF
KMRB 201732Z 2018/2118 11007KT P6SM FEW250
     FM202300 VRB03KT P6SM FEW250=



000
FTUS41 KLWX 201700
TAFMTN
TAF
KMTN 201732Z 2018/2118 09010KT P6SM FEW250
     FM202300 08006KT P6SM FEW250
     FM210400 00000KT P6SM FEW250=



000
FTUS41 KLWX 201700
TAFCHO
TAF
KCHO 201732Z 2018/2118 06006KT P6SM SCT250
     FM210300 00000KT P6SM FEW250=



000
FTUS41 KLWX 201700
TAFDCA
TAF
KDCA 201732Z 2018/2118 06010KT P6SM FEW250
     FM210400 07005KT P6SM FEW250=



000
FTUS41 KLWX 201700
TAFBWI
TAF
KBWI 201732Z 2018/2124 07009KT P6SM FEW250
     FM210200 07005KT P6SM FEW250
     FM210500 00000KT P6SM FEW250
     FM212200 14004KT P6SM BKN250=



000
FTUS41 KLWX 201500 RRA
TAFBWI
TAF
KBWI 201525Z 2015/2118 07012KT P6SM SCT250
     FM210200 07005KT P6SM FEW250
     FM210500 00000KT P6SM FEW250=



000
FTUS41 KLWX 201500 RRA
TAFDCA
TAF
KDCA 201525Z 2015/2112 07010KT P6SM SCT250
     FM210400 07005KT P6SM FEW250=



000
FTUS41 KLWX 201500 RRA
TAFIAD
TAF
KIAD 201524Z 2015/2118 09010KT P6SM SCT250
     FM210100 06006KT P6SM FEW250
     FM210500 00000KT P6SM FEW250=



000
FTUS41 KLWX 201300 AAA
TAFBWI
TAF AMD
KBWI 201355Z 2014/2118 07010G20KT P6SM SCT250
     FM210200 07005KT P6SM FEW250
     FM210500 00000KT P6SM FEW250=



000
FTUS41 KLWX 201100
TAFBWI
TAF
KBWI 201140Z 2012/2118 06006KT P6SM BKN250
     FM201400 07010KT P6SM SCT250
     FM210200 07005KT P6SM FEW250
     FM210500 00000KT P6SM FEW250=



000
FTUS41 KLWX 201100
TAFIAD
TAF
KIAD 201140Z 2012/2118 04005KT P6SM BKN250
     FM201500 07010KT P6SM SCT250
     FM210100 06006KT P6SM FEW250
     FM210500 00000KT P6SM FEW250=



000
FTUS41 KLWX 201100
TAFDCA
TAF
KDCA 201140Z 2012/2112 05005KT P6SM BKN250
     FM201500 07009KT P6SM SCT250
     FM210400 07005KT P6SM FEW250=



000
FTUS41 KLWX 201100
TAFMTN
TAF
KMTN 201140Z 2012/2112 06007KT P6SM BKN250
     FM210100 VRB03KT P6SM FEW250=



000
FTUS41 KLWX 201100
TAFCHO
TAF
KCHO 201140Z 2012/2112 04004KT P6SM BKN250
     FM201400 05009KT P6SM BKN250
     FM201900 06005KT P6SM SCT250
     FM210000 08009KT P6SM FEW250
     FM210200 06004KT P6SM FEW250
     FM210300 00000KT P6SM FEW250=



000
FTUS41 KLWX 201100
TAFMRB
TAF
KMRB 201140Z 2012/2112 04006KT P6SM BKN250
     FM201700 10007KT P6SM SCT250
     FM202300 VRB03KT P6SM FEW250=



000
FTUS41 KLWX 200800 AAA
TAFDCA
TAF AMD
KDCA 200823Z 2008/2106 05005KT P6SM BKN150 OVC200
     FM201400 07008KT P6SM SCT250
     FM210500 06004KT P6SM FEW250=



000
FTUS41 KLWX 200800 AAA
TAFBWI
TAF AMD
KBWI 200823Z 2008/2112 02005KT P6SM SCT180 OVC250
     FM201300 06008KT P6SM SCT250
     FM210300 07004KT P6SM FEW250=



000
FTUS41 KLWX 200800 AAA
TAFIAD
TAF AMD
KIAD 200823Z 2008/2112 VRB03KT P6SM BKN140 OVC250
     FM201400 07008KT P6SM SCT250
     FM210300 09004KT P6SM FEW250=



000
FTUS41 KLWX 200500
TAFCHO
TAF
KCHO 200522Z 2006/2106 02003KT P6SM BKN250
     FM201400 05009KT P6SM FEW250
     FM210200 06004KT P6SM FEW250=



000
FTUS41 KLWX 200500
TAFBWI
TAF
KBWI 200522Z 2006/2112 03004KT P6SM BKN250
     FM201300 06008KT P6SM FEW250
     FM210300 07004KT P6SM FEW250=



000
FTUS41 KLWX 200500
TAFIAD
TAF
KIAD 200522Z 2006/2112 01004KT P6SM FEW160 BKN250
     FM201400 07008KT P6SM FEW250
     FM210300 09004KT P6SM FEW250=



000
FTUS41 KLWX 200500
TAFDCA
TAF
KDCA 200522Z 2006/2106 04004KT P6SM OVC250
     FM201400 07008KT P6SM FEW250
     FM210500 06004KT P6SM FEW250=



000
FTUS41 KLWX 200500
TAFMRB
TAF
KMRB 200522Z 2006/2106 01006KT P6SM BKN250
     FM201400 07006KT P6SM FEW250
     FM202300 VRB03KT P6SM FEW250=



000
FTUS41 KLWX 200500
TAFMTN
TAF
KMTN 200522Z 2006/2106 NIL=



000
FTUS41 KLWX 192300
TAFMRB
TAF
KMRB 192320Z 2000/2024 06007KT P6SM SCT250=



000
FTUS41 KLWX 192300
TAFCHO
TAF
KCHO 192320Z 2000/2024 05006KT P6SM BKN250
     FM201300 04010KT P6SM FEW250=



000
FTUS41 KLWX 192300
TAFDCA
TAF
KDCA 192320Z 2000/2024 01008KT P6SM BKN250
     FM201300 06009KT P6SM FEW250=



000
FTUS41 KLWX 192300
TAFBWI
TAF
KBWI 192320Z 2000/2106 03008KT P6SM BKN250
     FM201200 07008KT P6SM FEW250
     FM201500 06012KT P6SM FEW250
     FM210000 08008KT P6SM FEW250=



000
FTUS41 KLWX 192300
TAFIAD
TAF
KIAD 192320Z 2000/2106 03008KT P6SM BKN250
     FM201500 07011KT P6SM FEW250
     FM202300 08007KT P6SM FEW250=



000
FTUS41 KLWX 192300
TAFMTN
TAF
KMTN 192320Z 2000/2024 01009KT P6SM BKN250
     FM201100 06011KT P6SM FEW250
      AMD NOT SKED 2002/2012=



000
FTUS41 KLWX 192000 AAA
TAFBWI
TAF AMD
KBWI 192047Z 1921/2024 02008KT P6SM BKN250
     FM201200 07008KT P6SM SCT250
     FM201500 06012KT P6SM SCT250=



000
FTUS41 KLWX 192000 AAA
TAFIAD
TAF AMD
KIAD 192047Z 1921/2024 02009KT P6SM BKN250
     FM200400 04005KT P6SM SCT250
     FM201400 06010KT P6SM SCT250=



000
FTUS41 KLWX 192000 AAA
TAFDCA
TAF AMD
KDCA 192047Z 1921/2018 03006KT P6SM BKN250
     FM201400 06011KT P6SM SCT250=



000
FTUS41 KLWX 191700 RRA
TAFCHO
TAF
KCHO 191743Z 1918/2018 07012KT P6SM BKN250
     FM192200 05006KT P6SM BKN250
     FM201300 04010KT P6SM SCT250=



000
FTUS41 KLWX 191700 RRA
TAFIAD
TAF
KIAD 191743Z 1918/2024 02012KT P6SM BKN250
     FM192200 04006KT P6SM SCT250
     FM201500 07011KT P6SM SCT250
     FM202300 08007KT P6SM FEW250=



000
FTUS41 KLWX 191700 RRA
TAFMTN
TAF
KMTN 191743Z 1918/2018 14006KT P6SM BKN250
     FM192100 02006KT P6SM BKN250
     FM201100 06010KT P6SM FEW250=



000
FTUS41 KLWX 191700 RRA
TAFBWI
TAF
KBWI 191743Z 1918/2024 07010KT P6SM BKN250
     FM192200 06005KT P6SM BKN250
     FM201300 07010KT P6SM SCT250=



000
FTUS41 KLWX 191700 RRA
TAFMRB
TAF
KMRB 191743Z 1918/2018 04012KT P6SM BKN250
     FM192200 04006KT P6SM SCT250
     FM201100 01004KT P6SM FEW250
     FM201400 07007KT P6SM FEW250=



000
FTUS41 KLWX 191700 RRA
TAFDCA
TAF
KDCA 191743Z 1918/2018 02009KT P6SM OVC250
     FM192200 02005KT P6SM BKN250
     FM201300 06009KT P6SM SCT250=



000
FTUS41 KLWX 191600 AAB
TAFIAD
TAF AMD
KIAD 191658Z 1917/2018 01008G16KT P6SM BKN250
     FM192100 03010KT P6SM BKN250
     FM200100 02008KT P6SM SCT250
     FM200800 01004KT P6SM FEW250=



000
FTUS41 KLWX 191500 AAA
TAFBWI
TAF AMD
KBWI 191538Z 1916/2018 07008KT P6SM BKN250
     FM191700 05010KT P6SM BKN250
     FM192100 03013KT P6SM SCT250
     FM200100 04009KT P6SM SCT250
     FM200300 04004KT P6SM FEW250=



000
FTUS41 KLWX 191500 AAA
TAFDCA
TAF AMD
KDCA 191537Z 1916/2012 02004KT P6SM BKN250
     FM192200 02010KT P6SM BKN250=



000
FTUS41 KLWX 191500 AAA
TAFIAD
TAF AMD
KIAD 191536Z 1916/2018 05007KT P6SM BKN250
     FM192100 03010KT P6SM BKN250
     FM200100 02008KT P6SM SCT250
     FM200800 01004KT P6SM FEW250=



000
FTUS41 KLWX 191500 AAA
TAFCHO
TAF AMD
KCHO 191513Z 1915/2012 04012KT P6SM SKC
     FM191600 04009KT P6SM BKN250
     FM192300 05005KT P6SM BKN250=



000
FTUS41 KLWX 191100
TAFDCA
TAF
KDCA 191131Z 1912/2012 07003KT P6SM OVC250
     FM191600 03006KT P6SM BKN250
     FM192200 02010KT P6SM BKN250=



000
FTUS41 KLWX 191100
TAFMTN
TAF
KMTN 191131Z 1912/2012 01003KT P6SM BKN150
     FM191900 03006KT P6SM BKN250
     FM192100 01012KT P6SM SCT250
     FM192300 01005KT P6SM SCT250
     FM201100 03006KT P6SM FEW250=



000
FTUS41 KLWX 191100
TAFCHO
TAF
KCHO 191131Z 1912/2012 00000KT P6SM BKN250
     FM191400 02004KT P6SM BKN250
     FM191600 04009KT P6SM BKN250
     FM192300 05005KT P6SM BKN250=



000
FTUS41 KLWX 191100
TAFMRB
TAF
KMRB 191131Z 1912/2012 00000KT P6SM BKN250
     FM191300 03006KT P6SM BKN250
     FM191500 04010KT P6SM BKN250
     FM192200 01006KT P6SM SCT250=



000
FTUS41 KLWX 191100
TAFBWI
TAF
KBWI 191131Z 1912/2018 01003KT P6SM OVC250
     FM191700 04006KT P6SM BKN250
     FM192100 02011KT P6SM SCT250
     FM200100 04009KT P6SM SCT250
     FM200300 04004KT P6SM FEW250=



000
FTUS41 KLWX 191100
TAFIAD
TAF
KIAD 191131Z 1912/2018 01003KT P6SM OVC250
     FM191600 04007KT P6SM BKN250
     FM192100 01010KT P6SM BKN250
     FM200100 02008KT P6SM SCT250
     FM200800 01004KT P6SM FEW250=



000
FTUS41 KLWX 190800 AAA
TAFDCA
TAF AMD
KDCA 190831Z 1909/2006 00000KT P6SM OVC250
     FM191600 04007KT P6SM BKN250
     FM192200 02011KT P6SM BKN250
     FM200500 02007KT P6SM FEW250=



000
FTUS41 KLWX 190800 AAA
TAFIAD
TAF AMD
KIAD 190831Z 1909/2012 00000KT P6SM OVC250
     FM191400 03006KT P6SM BKN250
     FM191700 01010KT P6SM BKN250
     FM200300 02006KT P6SM FEW250=



000
FTUS41 KLWX 190800 AAA
TAFBWI
TAF AMD
KBWI 190831Z 1909/2012 00000KT P6SM OVC250
     FM191400 03006KT P6SM BKN250
     FM191800 02010KT P6SM BKN250
     FM200200 03006KT P6SM FEW250=



000
FTUS41 KLWX 190500
TAFCHO
TAF
KCHO 190520Z 1906/2006 19004KT P6SM OVC250
     FM191500 05008KT P6SM BKN250
     FM200200 VRB03KT P6SM SCT250=



000
FTUS41 KLWX 190500
TAFMRB
TAF
KMRB 190520Z 1906/2006 VRB03KT P6SM OVC250
     FM191400 03008KT P6SM BKN250
     FM200100 01004KT P6SM FEW250=



000
FTUS41 KLWX 190500
TAFDCA
TAF
KDCA 190520Z 1906/2006 21004KT P6SM OVC250
     FM191600 04007KT P6SM BKN250
     FM192200 02011KT P6SM SCT250=



000
FTUS41 KLWX 190500
TAFIAD
TAF
KIAD 190520Z 1906/2012 19003KT P6SM OVC250
     FM191500 03008KT P6SM BKN250
     FM191900 01012KT P6SM SCT250=



000
FTUS41 KLWX 190500
TAFMTN
TAF
KMTN 190520Z 1906/2006 NIL=



000
FTUS41 KLWX 190500
TAFBWI
TAF
KBWI 190520Z 1906/2012 VRB03KT P6SM OVC250
     FM191600 04008KT P6SM SCT250
     FM200400 03004KT P6SM FEW250=



000
FTUS41 KLWX 182300 RRA
TAFMRB
TAF
KMRB 182343Z 1900/1924 12005KT P6SM OVC250
     FM191300 36007KT P6SM SCT250=



000
FTUS41 KLWX 182300 RRA
TAFIAD
TAF
KIAD 182343Z 1900/2006 16005KT P6SM FEW080 OVC200
     FM191200 32006KT P6SM BKN250
     FM191500 36010KT P6SM SCT250
     FM192100 36005KT P6SM FEW250=



000
FTUS41 KLWX 182300 RRA
TAFCHO
TAF
KCHO 182343Z 1900/1924 VRB03KT P6SM OVC250
     FM191400 02007KT P6SM BKN250=



000
FTUS41 KLWX 182300 RRA
TAFDCA
TAF
KDCA 182343Z 1900/1924 12006KT P6SM FEW080 OVC200
     FM191200 01004KT P6SM BKN250
     FM191500 35010KT P6SM BKN250
     FM192100 36005KT P6SM FEW250=



000
FTUS41 KLWX 182300 RRA
TAFMTN
TAF
KMTN 182343Z 1900/1924 00000KT P6SM OVC200
     FM191200 32005KT P6SM SCT250
     FM191500 01010KT P6SM SCT250
     FM192100 31006KT P6SM FEW250
      AMD NOT SKED 1902/1912=



000
FTUS41 KLWX 182300 RRA
TAFBWI
TAF
KBWI 182343Z 1900/2006 08005KT P6SM OVC250
     FM191100 31004KT P6SM SCT250
     FM191600 36010KT P6SM SCT250=



000
FTUS41 KLWX 182100 AAA
TAFBWI
TAF AMD
KBWI 182100Z 1821/1924 VRB03KT P6SM BKN250
     FM191300 35004KT P6SM SCT250
     FM192200 02010KT P6SM SCT250=



000
FTUS41 KLWX 182100 AAA
TAFDCA
TAF AMD
KDCA 182100Z 1821/1918 00000KT P6SM BKN250
     FM191200 35004KT P6SM BKN250
     FM191500 02010KT P6SM BKN250=



000
FTUS41 KLWX 182100 AAA
TAFIAD
TAF AMD
KIAD 182100Z 1821/1924 VRB03KT P6SM FEW080 BKN200
     FM191200 32006KT P6SM BKN250
     FM191500 36010KT P6SM SCT250=



000
FTUS41 KLWX 181700
TAFDCA
TAF
KDCA 181729Z 1818/1918 12005KT P6SM SCT030 BKN250
     FM190300 00000KT P6SM OVC130
     FM191300 35006KT P6SM BKN250
     FM191500 02010KT P6SM BKN250=



000
FTUS41 KLWX 181700
TAFCHO
TAF
KCHO 181729Z 1818/1918 16006KT P6SM SCT050 BKN250
     FM190200 00000KT P6SM OVC130
     FM191400 02007KT P6SM BKN250=



000
FTUS41 KLWX 181700
TAFMTN
TAF
KMTN 181729Z 1818/1918 13005KT P6SM SCT030 BKN250
     FM190500 00000KT P6SM BKN130
     FM191200 33006KT P6SM SCT250
     FM191500 01010KT P6SM SCT250=



000
FTUS41 KLWX 181700
TAFMRB
TAF
KMRB 181729Z 1818/1918 15007KT P6SM BKN250
     FM190300 VRB03KT P6SM BKN130
     FM191300 36007KT P6SM SCT250=



000
FTUS41 KLWX 181700
TAFBWI
TAF
KBWI 181729Z 1818/1924 12005KT P6SM SCT030 BKN250
     FM190300 00000KT P6SM BKN130
     FM191300 34007KT P6SM SCT250
     FM192200 04006KT P6SM SCT250=



000
FTUS41 KLWX 181700
TAFIAD
TAF
KIAD 181729Z 1818/1924 13006KT P6SM SCT030 BKN250
     FM190300 00000KT P6SM BKN130
     FM191200 34006KT P6SM BKN250
     FM191500 02010KT P6SM SCT250=



000
FTUS41 KLWX 181500 AAA
TAFCHO
TAF AMD
KCHO 181506Z 1815/1912 00000KT P6SM BKN025
     FM181700 13003KT P6SM BKN200=



000
FTUS41 KLWX 181400 AAA
TAFIAD
TAF AMD
KIAD 181407Z 1814/1918 08004KT P6SM SCT020 BKN250
     FM181800 13006KT P6SM BKN250
     FM190600 00000KT P6SM BKN250
     FM191300 35006KT P6SM SCT250
     FM191500 03011KT P6SM SCT250=



000
FTUS41 KLWX 181400 AAA
TAFBWI
TAF AMD
KBWI 181407Z 1814/1918 08004KT P6SM BKN025
     FM181800 VRB03KT P6SM BKN050
     FM190900 00000KT P6SM SCT110
     FM191400 02006KT P6SM SCT250=



000
FTUS41 KLWX 181400 AAA
TAFDCA
TAF AMD
KDCA 181407Z 1814/1912 06005KT P6SM BKN025
     FM181800 06004KT P6SM BKN150
     FM182000 13006KT P6SM BKN250
     FM190400 00000KT P6SM OVC250=



000
FTUS41 KLWX 181100
TAFCHO
TAF
KCHO 181122Z 1812/1912 00000KT P6SM BKN025
     FM181500 13003KT P6SM BKN200=



000
FTUS41 KLWX 181100
TAFIAD
TAF
KIAD 181122Z 1812/1918 08004KT P6SM SCT020 BKN250
     FM181500 13006KT P6SM BKN250
     FM190600 00000KT P6SM BKN250
     FM191300 35006KT P6SM SCT250
     FM191500 03011KT P6SM SCT250=



000
FTUS41 KLWX 181100
TAFMRB
TAF
KMRB 181122Z 1812/1912 00000KT P6SM BKN250
     FM181700 14007KT P6SM BKN250
     FM190600 VRB03KT P6SM BKN250
     FM191100 36008KT P6SM FEW250=



000
FTUS41 KLWX 181100
TAFBWI
TAF
KBWI 181122Z 1812/1918 06004KT P6SM BKN020
     FM181400 VRB03KT P6SM BKN040
     FM190900 00000KT P6SM SCT110
     FM191400 02006KT P6SM SCT250=



000
FTUS41 KLWX 181100
TAFMTN
TAF
KMTN 181122Z 1812/1912 06006KT P6SM OVC020
     FM181300 06005KT P6SM BKN025
     FM181600 08004KT P6SM BKN100
     FM182100 20004KT P6SM BKN250
     FM190800 00000KT P6SM BKN250=



000
FTUS41 KLWX 181100
TAFDCA
TAF
KDCA 181122Z 1812/1912 06005KT P6SM BKN020
     FM181400 06004KT P6SM BKN150
     FM182000 13006KT P6SM BKN250
     FM190400 00000KT P6SM OVC250=



000
FTUS41 KLWX 181000 AAB
TAFIAD
TAF AMD
KIAD 181054Z 1811/1912 VRB03KT P6SM FEW020 BKN250
     FM181300 VRB03KT P6SM BKN200
     FM181900 13007KT P6SM BKN200
     FM190400 VRB03KT P6SM BKN200=



000
FTUS41 KLWX 180900 AAA
TAFCHO
TAF AMD
KCHO 180907Z 1809/1906 VRB03KT P6SM BKN025
     FM181000 VRB03KT P6SM BKN020
     FM181300 14004KT P6SM BKN035=



000
FTUS41 KLWX 180900 AAA
TAFBWI
TAF AMD
KBWI 180907Z 1809/1912 09005KT P6SM OVC025
     FM181000 08005KT P6SM OVC020
     FM181600 VRB03KT P6SM BKN100
     FM190900 00000KT P6SM SCT110=



000
FTUS41 KLWX 180900 AAA
TAFDCA
TAF AMD
KDCA 180907Z 1809/1906 07004KT P6SM OVC025
     FM181400 05004KT P6SM BKN035
     FM181900 11006KT P6SM BKN250
     FM190400 00000KT P6SM OVC250=



000
FTUS41 KLWX 180900 AAA
TAFMTN
TAF AMD
KMTN 180907Z 1809/1906 NIL=



000
FTUS41 KLWX 180900 AAA
TAFIAD
TAF AMD
KIAD 180907Z 1809/1912 VRB03KT P6SM BKN025
     FM181300 VRB03KT P6SM BKN080
     FM181900 13007KT P6SM BKN250
     FM190400 VRB03KT P6SM BKN250=



000
FTUS41 KLWX 180900 AAA
TAFMRB
TAF AMD
KMRB 180907Z 1809/1906 00000KT P6SM FEW250
     FM181500 14007KT P6SM BKN250=



000
FTUS41 KLWX 180500 RRA
TAFBWI
TAF
KBWI 180540Z 1806/1912 10005KT P6SM SCT030
     FM180700 09005KT P6SM BKN025
     FM180900 09005KT P6SM OVC015
     FM181600 VRB03KT P6SM BKN150=



000
FTUS41 KLWX 180500 RRA
TAFMRB
TAF
KMRB 180540Z 1806/1906 13006KT P6SM FEW130
     FM180900 12005KT P6SM FEW070
     FM181700 14007KT P6SM BKN250=



000
FTUS41 KLWX 180500 RRA
TAFCHO
TAF
KCHO 180540Z 1806/1906 07004KT P6SM FEW100
     FM181100 14005KT P6SM BKN070=



000
FTUS41 KLWX 180500 RRA
TAFMTN
TAF
KMTN 180540Z 1806/1906 NIL=



000
FTUS41 KLWX 180500 RRA
TAFIAD
TAF
KIAD 180540Z 1806/1912 10005KT P6SM FEW070
     FM181000 12004KT P6SM BKN020
     FM181600 16006KT P6SM BKN250
     FM190600 00000KT P6SM BKN250=



000
FTUS41 KLWX 180500 RRA
TAFDCA
TAF
KDCA 180540Z 1806/1906 08004KT P6SM FEW050
     FM180800 07004KT P6SM BKN030
     FM181200 06005KT P6SM OVC015
     FM181500 VRB03KT P6SM BKN090=



000
FTUS41 KLWX 180200 AAA
TAFBWI
TAF AMD
KBWI 180252Z 1803/1906 11009KT P6SM BKN025
     FM180400 06005KT P6SM OVC010
     FM181400 09004KT P6SM OVC050
     FM182000 15004KT P6SM OVC250=



000
FTUS41 KLWX 172300 RRA
TAFCHO
TAF
KCHO 172345Z 1800/1824 09005KT P6SM BKN250
     FM180900 00000KT P6SM OVC050
     FM181100 VRB03KT P6SM OVC020
     FM181400 12005KT P6SM OVC250=



000
FTUS41 KLWX 172300 RRA
TAFBWI
TAF
KBWI 172345Z 1800/1906 11009KT P6SM FEW050 SCT250
     FM180600 05005KT P6SM BKN050
     FM181200 06005KT P6SM OVC020
     FM181500 09004KT P6SM OVC050
     FM182000 15004KT P6SM OVC250=



000
FTUS41 KLWX 172300 RRA
TAFMRB
TAF
KMRB 172345Z 1800/1824 13006KT P6SM SCT250
     FM180700 00000KT P6SM OVC100
     FM181100 13006KT P6SM OVC020
     FM181500 13005KT P6SM OVC250=



000
FTUS41 KLWX 172300 RRA
TAFDCA
TAF
KDCA 172345Z 1800/1824 10008KT P6SM FEW050 SCT200
     FM180600 05005KT P6SM BKN050
     FM181200 03005KT P6SM BKN020
     FM181500 09005KT P6SM OVC100
     FM181800 12005KT P6SM OVC250=



000
FTUS41 KLWX 172300 RRA
TAFIAD
TAF
KIAD 172345Z 1800/1906 11007KT P6SM FEW050 SCT250
     FM180600 10004KT P6SM BKN050
     FM181100 07004KT P6SM BKN020
     FM181400 16007KT P6SM BKN150
     FM181800 18008KT P6SM OVC250=



000
FTUS41 KLWX 172300 RRA
TAFMTN
TAF
KMTN 172345Z 1800/1824 10005KT P6SM BKN250
     FM180600 10005KT P6SM OVC050
     FM181500 09004KT P6SM BKN100
     FM182100 13004KT P6SM OVC250
      AMD NOT SKED 1802/1812=



    US Dept of Commerce
    National Oceanic and Atmospheric Administration
    National Weather Service
    1325 East West Highway
    Silver Spring, MD 20910
    Page Author: NWS Internet Services Team
Disclaimer
Information Quality
Credits
Glossary
Privacy Policy
Freedom of Information Act (FOIA)
About Us
Career Opportunities